createdAt,value
2019-04-04T00:01:02.169Z,100074.45
2019-04-04T00:03:31.625Z,100089.62
2019-04-04T00:06:00.942Z,100106.68
2019-04-04T00:08:31.636Z,100106.68
2019-04-04T00:10:59.830Z,100093.83
2019-04-04T00:13:29.311Z,100089.06
2019-04-04T00:15:58.667Z,100079.83
2019-04-04T00:18:28.419Z,100096.42
2019-04-04T00:20:57.713Z,100110.45
2019-04-04T00:23:27.029Z,100102.98
2019-04-04T00:26:17.899Z,100096.91
2019-04-04T00:28:47.235Z,100080.39
2019-04-04T00:31:18.906Z,100058.08
2019-04-04T00:33:45.867Z,100035.28
2019-04-04T00:36:15.723Z,100028.25
2019-04-04T00:38:45.021Z,100028.56
2019-04-04T00:41:14.614Z,100053.22
2019-04-04T00:43:46.022Z,100069.66
2019-04-04T00:46:15.402Z,100068.94
2019-04-04T00:48:44.712Z,100068.02
2019-04-04T00:51:13.952Z,100072.98
2019-04-04T00:53:43.599Z,100071.37
2019-04-04T00:56:12.528Z,100070.09
2019-04-04T00:58:41.967Z,100061.39
2019-04-04T01:01:11.282Z,100063.63
2019-04-04T01:03:40.576Z,100049.56
2019-04-04T01:06:09.983Z,100050.06
2019-04-04T01:08:39.314Z,100048.84
2019-04-04T01:11:08.569Z,100049.30
2019-04-04T01:13:37.858Z,100052.36
2019-04-04T01:16:07.135Z,100055.41
2019-04-04T01:18:37.455Z,100047.53
2019-04-04T01:21:05.635Z,100034.46
2019-04-04T01:23:34.911Z,100028.75
2019-04-04T01:26:04.214Z,100013.37
2019-04-04T01:28:33.521Z,100001.45
2019-04-04T01:31:02.854Z,99998.49
2019-04-04T01:33:32.120Z,99996.36
2019-04-04T01:36:01.365Z,99999.45
2019-04-04T01:38:30.605Z,100012.63
2019-04-04T01:40:59.843Z,100012.63
2019-04-04T01:43:29.077Z,100033.78
2019-04-04T01:45:58.319Z,100033.78
2019-04-04T01:48:27.619Z,100026.25
2019-04-04T01:50:56.859Z,100016.95
2019-04-04T01:53:26.132Z,100027.40
2019-04-04T01:55:55.439Z,100016.43
2019-04-04T01:58:24.681Z,100009.30
2019-04-04T02:00:53.932Z,100007.13
2019-04-04T02:03:23.394Z,100004.40
2019-04-04T02:05:52.370Z,99999.50
2019-04-04T02:08:21.625Z,100001.17
2019-04-04T02:10:50.891Z,100026.53
2019-04-04T02:13:20.128Z,100042.62
2019-04-04T02:15:49.367Z,100035.52
2019-04-04T02:18:18.639Z,100027.64
2019-04-04T02:20:47.852Z,100030.19
2019-04-04T02:23:17.067Z,100030.09
2019-04-04T02:25:46.282Z,100032.19
2019-04-04T02:28:15.507Z,100027.61
2019-04-04T02:30:48.022Z,100030.63
2019-04-04T02:33:14.009Z,100033.15
2019-04-04T02:35:43.959Z,100024.73
2019-04-04T02:38:12.536Z,100016.27
2019-04-04T02:40:42.281Z,100024.87
2019-04-04T02:43:10.952Z,100019.96
2019-04-04T02:45:40.162Z,100032.82
2019-04-04T02:48:09.418Z,100041.64
2019-04-04T02:50:38.736Z,100061.08
2019-04-04T02:53:08.035Z,100063.25
2019-04-04T02:55:37.326Z,100048.36
2019-04-04T02:58:06.605Z,100048.36
2019-04-04T03:00:35.916Z,100054.86
2019-04-04T03:03:08.028Z,100045.12
2019-04-04T03:05:34.642Z,100043.27
2019-04-04T03:08:04.584Z,100034.25
2019-04-04T03:10:33.091Z,100034.25
2019-04-04T03:13:02.320Z,100027.67
2019-04-04T03:15:31.535Z,100022.52
2019-04-04T03:18:04.071Z,100038.30
2019-04-04T03:20:30.013Z,100038.30
2019-04-04T03:23:00.580Z,100030.87
2019-04-04T03:25:28.484Z,100010.33
2019-04-04T03:27:58.258Z,100010.33
2019-04-04T03:30:26.972Z,100006.63
2019-04-04T03:32:56.230Z,100014.48
2019-04-04T03:35:28.086Z,100010.81
2019-04-04T03:37:54.766Z,100000.64
2019-04-04T03:40:25.588Z,99992.64
2019-04-04T03:42:53.349Z,100005.68
2019-04-04T03:45:26.188Z,99993.80
2019-04-04T03:47:51.802Z,99973.27
2019-04-04T03:50:21.006Z,99968.74
2019-04-04T03:52:50.287Z,99970.91
2019-04-04T03:55:19.458Z,99970.91
2019-04-04T03:57:48.724Z,99973.96
2019-04-04T04:00:27.247Z,99976.59
2019-04-04T04:02:56.511Z,99986.27
2019-04-04T04:05:26.239Z,99991.45
2019-04-04T04:07:55.452Z,99986.92
2019-04-04T04:10:24.712Z,99993.12
2019-04-04T04:12:53.941Z,99975.05
2019-04-04T04:15:23.166Z,99975.05
2019-04-04T04:17:52.396Z,99987.23
2019-04-04T04:20:21.615Z,99988.08
2019-04-04T04:22:51.665Z,99988.08
2019-04-04T04:25:20.166Z,99983.21
2019-04-04T04:27:50.382Z,99997.80
2019-04-04T04:30:19.642Z,99997.80
2019-04-04T04:32:48.897Z,99996.25
2019-04-04T04:35:18.176Z,99987.27
2019-04-04T04:37:52.310Z,99977.71
2019-04-04T04:40:16.793Z,99974.11
2019-04-04T04:42:46.029Z,99957.41
2019-04-04T04:45:15.275Z,99963.98
2019-04-04T04:47:44.479Z,99973.54
2019-04-04T04:50:13.722Z,99981.39
2019-04-04T04:52:46.494Z,99986.77
2019-04-04T04:55:12.299Z,99990.02
2019-04-04T04:57:41.396Z,99991.09
2019-04-04T05:00:10.841Z,100007.84
2019-04-04T05:02:40.203Z,100021.88
2019-04-04T05:05:09.591Z,100016.61
2019-04-04T05:07:39.140Z,100018.78
2019-04-04T05:10:08.176Z,100002.14
2019-04-04T05:12:37.469Z,99985.91
2019-04-04T05:15:06.795Z,99963.47
2019-04-04T05:17:36.165Z,99962.86
2019-04-04T05:20:06.159Z,99967.19
2019-04-04T05:22:35.440Z,99974.23
2019-04-04T05:25:08.394Z,99968.16
2019-04-04T05:27:36.848Z,99964.63
2019-04-04T05:30:03.682Z,99960.58
2019-04-04T05:32:32.959Z,99953.88
2019-04-04T05:35:02.271Z,99945.92
2019-04-04T05:37:31.515Z,99944.95
2019-04-04T05:40:00.821Z,99950.02
2019-04-04T05:42:32.779Z,99965.03
2019-04-04T05:44:59.467Z,99969.67
2019-04-04T05:47:28.848Z,99965.11
2019-04-04T05:49:58.458Z,99965.11
2019-04-04T05:52:27.839Z,99950.27
2019-04-04T05:54:57.423Z,99971.41
2019-04-04T05:57:26.629Z,99968.77
2019-04-04T05:59:56.191Z,99968.77
2019-04-04T06:02:25.053Z,99965.27
2019-04-04T06:04:55.412Z,99940.24
2019-04-04T06:07:23.556Z,99954.82
2019-04-04T06:09:52.983Z,99955.21
2019-04-04T06:12:24.722Z,99988.48
2019-04-04T06:14:51.523Z,99988.48
2019-04-04T06:17:20.765Z,99988.36
2019-04-04T06:19:50.047Z,99985.72
2019-04-04T06:22:21.127Z,99992.05
2019-04-04T06:24:48.643Z,99975.74
2019-04-04T06:27:17.910Z,99998.13
2019-04-04T06:29:47.978Z,99984.41
2019-04-04T06:32:16.523Z,99996.90
2019-04-04T06:34:45.770Z,99984.06
2019-04-04T06:37:15.078Z,99982.88
2019-04-04T06:39:44.374Z,100004.77
2019-04-04T06:42:13.656Z,99999.04
2019-04-04T06:44:43.904Z,99988.08
2019-04-04T06:47:12.125Z,99982.38
2019-04-04T06:49:41.343Z,99996.41
2019-04-04T06:52:10.575Z,100004.99
2019-04-04T06:54:39.835Z,99990.20
2019-04-04T06:57:09.065Z,99978.70
2019-04-04T06:59:38.389Z,99988.09
2019-04-04T07:02:07.626Z,100010.80
2019-04-04T07:04:36.867Z,100010.80
2019-04-04T07:07:06.092Z,100021.26
2019-04-04T07:09:37.243Z,100003.27
2019-04-04T07:12:06.500Z,100003.59
2019-04-04T07:14:45.254Z,100003.59
2019-04-04T07:17:03.404Z,100009.63
2019-04-04T07:19:32.445Z,100006.64
2019-04-04T07:22:01.667Z,100012.16
2019-04-04T07:24:31.181Z,100017.31
2019-04-04T07:27:00.192Z,100020.84
2019-04-04T07:29:29.360Z,100005.83
2019-04-04T07:31:58.559Z,99991.83
2019-04-04T07:34:27.838Z,100004.48
2019-04-04T07:36:57.107Z,100030.86
2019-04-04T07:39:26.330Z,100026.53
2019-04-04T07:41:55.560Z,100020.45
2019-04-04T07:44:24.873Z,100029.69
2019-04-04T07:46:54.077Z,100024.80
2019-04-04T07:49:23.948Z,100032.53
2019-04-04T07:51:52.555Z,100033.34
2019-04-04T07:54:21.786Z,100033.52
2019-04-04T07:56:51.021Z,100021.52
2019-04-04T07:59:20.267Z,100015.09
2019-04-04T08:01:51.292Z,100016.41
2019-04-04T08:04:18.948Z,100013.33
2019-04-04T08:06:48.178Z,100000.54
2019-04-04T08:09:17.422Z,99992.03
2019-04-04T08:11:46.636Z,99985.11
2019-04-04T08:14:15.900Z,100004.83
2019-04-04T08:16:45.146Z,100002.39
2019-04-04T08:19:14.375Z,99995.05
2019-04-04T08:21:43.608Z,99979.47
2019-04-04T08:24:12.850Z,99979.47
2019-04-04T08:26:42.071Z,99979.84
2019-04-04T08:29:11.290Z,100000.03
2019-04-04T08:31:40.572Z,100006.44
2019-04-04T08:34:09.872Z,100009.81
2019-04-04T08:36:39.083Z,100002.91
2019-04-04T08:39:11.334Z,100003.62
2019-04-04T08:41:40.708Z,100008.05
2019-04-04T08:44:10.109Z,100005.63
2019-04-04T08:46:39.370Z,99990.62
2019-04-04T08:49:08.638Z,99987.85
2019-04-04T08:51:37.890Z,99993.41
2019-04-04T08:54:07.199Z,99997.65
2019-04-04T08:56:36.444Z,99996.14
2019-04-04T08:59:05.670Z,99998.64
2019-04-04T09:01:34.948Z,99997.28
2019-04-04T09:04:04.181Z,99986.48
2019-04-04T09:06:33.415Z,99986.48
2019-04-04T09:09:02.702Z,99990.05
2019-04-04T09:11:31.974Z,99998.09
2019-04-04T09:14:01.160Z,99993.02
2019-04-04T09:16:30.470Z,99989.89
2019-04-04T09:18:59.696Z,99989.81
2019-04-04T09:21:28.964Z,99991.40
2019-04-04T09:24:00.466Z,99991.70
2019-04-04T09:26:27.467Z,99994.36
2019-04-04T09:28:56.676Z,99979.05
2019-04-04T09:31:25.948Z,99989.25
2019-04-04T09:33:55.185Z,99998.20
2019-04-04T09:36:24.422Z,99979.46
2019-04-04T09:38:53.699Z,99984.91
2019-04-04T09:41:22.927Z,99982.73
2019-04-04T09:43:52.168Z,99981.23
2019-04-04T09:46:21.432Z,99982.92
2019-04-04T09:48:50.699Z,99985.02
2019-04-04T09:51:19.998Z,100000.24
2019-04-04T09:53:53.148Z,100007.00
2019-04-04T09:56:18.502Z,100010.59
2019-04-04T09:58:47.728Z,100014.03
2019-04-04T10:01:16.961Z,100023.44
2019-04-04T10:03:46.224Z,100020.95
2019-04-04T10:06:15.474Z,100014.48
2019-04-04T10:08:44.717Z,100007.72
2019-04-04T10:11:14.025Z,100011.94
2019-04-04T10:13:43.312Z,100003.13
2019-04-04T10:16:12.551Z,100013.71
2019-04-04T10:18:41.771Z,100021.98
2019-04-04T10:21:12.441Z,100009.35
2019-04-04T10:23:40.357Z,100023.74
2019-04-04T10:26:09.656Z,100028.27
2019-04-04T10:28:38.935Z,100028.34
2019-04-04T10:31:08.137Z,100030.68
2019-04-04T10:33:37.363Z,100022.67
2019-04-04T10:36:06.585Z,100025.17
2019-04-04T10:38:35.849Z,100022.90
2019-04-04T10:41:05.103Z,100023.13
2019-04-04T10:43:34.325Z,100023.37
2019-04-04T10:46:03.520Z,100016.03
2019-04-04T10:48:32.738Z,100010.95
2019-04-04T10:51:01.952Z,100010.20
2019-04-04T10:53:31.195Z,100007.50
2019-04-04T10:56:00.414Z,99992.06
2019-04-04T10:58:29.693Z,99999.28
2019-04-04T11:00:58.914Z,99996.33
2019-04-04T11:03:28.212Z,99991.40
2019-04-04T11:05:57.437Z,99988.58
2019-04-04T11:08:26.682Z,99987.70
2019-04-04T11:10:58.850Z,99987.68
2019-04-04T11:13:33.341Z,100000.56
2019-04-04T11:15:54.534Z,99999.82
2019-04-04T11:18:23.788Z,99995.69
2019-04-04T11:20:52.996Z,100001.59
2019-04-04T11:23:22.259Z,99991.97
2019-04-04T11:25:51.512Z,99982.48
2019-04-04T11:28:20.755Z,99983.08
2019-04-04T11:30:49.988Z,99983.80
2019-04-04T11:33:19.293Z,99980.31
2019-04-04T11:35:48.555Z,99975.02
2019-04-04T11:38:17.809Z,99980.92
2019-04-04T11:40:47.024Z,99995.43
2019-04-04T11:43:16.264Z,99992.08
2019-04-04T11:45:45.512Z,100001.62
2019-04-04T11:48:14.746Z,99994.09
2019-04-04T11:50:43.959Z,99987.02
2019-04-04T11:53:13.313Z,99990.59
2019-04-04T11:55:42.577Z,99995.75
2019-04-04T11:58:11.800Z,99995.95
2019-04-04T12:00:42.368Z,99997.17
2019-04-04T12:03:11.593Z,100007.27
2019-04-04T12:05:40.834Z,100006.63
2019-04-04T12:08:10.067Z,100009.81
2019-04-04T12:10:39.348Z,100015.28
2019-04-04T12:13:08.628Z,100014.88
2019-04-04T12:15:37.904Z,100017.66
2019-04-04T12:18:07.140Z,100017.42
2019-04-04T12:20:36.383Z,100006.20
2019-04-04T12:23:05.628Z,100007.24
2019-04-04T12:25:34.884Z,100009.33
2019-04-04T12:28:04.106Z,99993.51
2019-04-04T12:30:33.407Z,99997.75
2019-04-04T12:33:02.645Z,100000.00
2019-04-04T12:35:31.888Z,99988.45
2019-04-04T12:38:01.106Z,99991.00
2019-04-04T12:40:30.322Z,99981.08
2019-04-04T12:42:59.608Z,99986.30
2019-04-04T12:45:28.873Z,99985.59
2019-04-04T12:47:58.100Z,99996.41
2019-04-04T12:50:27.334Z,100007.94
2019-04-04T12:52:56.622Z,100013.09
2019-04-04T12:55:25.860Z,100012.53
2019-04-04T12:57:55.109Z,100019.78
2019-04-04T13:00:24.352Z,100019.31
2019-04-04T13:02:53.624Z,100022.80
2019-04-04T13:05:22.866Z,100017.50
2019-04-04T13:07:52.143Z,100010.19
2019-04-04T13:10:32.535Z,100014.59
2019-04-04T13:12:50.666Z,100024.86
2019-04-04T13:15:19.947Z,100016.55
2019-04-04T13:17:49.160Z,100021.48
2019-04-04T13:20:18.364Z,100011.43
2019-04-04T13:22:47.630Z,100009.10
2019-04-04T13:25:16.942Z,100003.12
2019-04-04T13:27:46.232Z,100006.92
2019-04-04T13:30:15.458Z,100001.20
2019-04-04T13:32:44.681Z,99999.71
2019-04-04T13:35:14.022Z,99991.67
2019-04-04T13:37:43.261Z,99990.80
2019-04-04T13:40:12.534Z,99995.16
2019-04-04T13:42:41.782Z,99999.28
2019-04-04T13:45:11.573Z,99994.09
2019-04-04T13:47:40.803Z,99994.00
2019-04-04T13:50:12.459Z,99985.91
2019-04-04T13:52:39.338Z,99986.55
2019-04-04T13:55:08.566Z,99999.06
2019-04-04T13:57:39.242Z,100001.34
2019-04-04T14:00:07.122Z,99997.45
2019-04-04T14:02:36.449Z,100002.80
2019-04-04T14:05:10.183Z,99994.27
2019-04-04T14:07:35.693Z,100007.94
2019-04-04T14:10:05.582Z,99999.14
2019-04-04T14:12:34.999Z,100007.72
2019-04-04T14:15:04.650Z,99997.30
2019-04-04T14:17:33.986Z,99999.94
2019-04-04T14:20:03.199Z,99996.50
2019-04-04T14:22:32.464Z,100004.75
2019-04-04T14:25:01.775Z,100007.46
2019-04-04T14:27:30.982Z,100013.00
2019-04-04T14:30:00.185Z,100018.45
2019-04-04T14:32:29.432Z,100018.66
2019-04-04T14:34:58.647Z,100022.69
2019-04-04T14:37:27.882Z,100024.86
2019-04-04T14:39:57.280Z,100032.89
2019-04-04T14:42:26.517Z,100042.20
2019-04-04T14:44:55.784Z,100051.86
2019-04-04T14:47:25.008Z,100051.91
2019-04-04T14:49:54.227Z,100047.89
2019-04-04T14:52:24.292Z,100047.89
2019-04-04T14:54:52.654Z,100039.84
2019-04-04T14:57:21.930Z,100047.63
2019-04-04T14:59:51.171Z,100055.94
2019-04-04T15:02:20.572Z,100055.56
2019-04-04T15:04:49.827Z,100047.77
2019-04-04T15:07:19.033Z,100050.56
2019-04-04T15:09:48.378Z,100043.17
2019-04-04T15:12:17.602Z,100050.89
2019-04-04T15:14:46.833Z,100059.79
2019-04-04T15:17:16.144Z,100059.86
2019-04-04T15:19:45.770Z,100063.00
2019-04-04T15:22:15.062Z,100069.55
2019-04-04T15:24:44.312Z,100069.97
2019-04-04T15:27:12.868Z,100081.49
2019-04-04T15:29:42.172Z,100075.94
2019-04-04T15:32:11.416Z,100057.31
2019-04-04T15:34:40.684Z,100048.36
2019-04-04T15:37:09.883Z,100056.14
2019-04-04T15:39:39.134Z,100062.66
2019-04-04T15:42:08.470Z,100071.86
2019-04-04T15:44:37.769Z,100093.33
2019-04-04T15:47:07.034Z,100089.64
2019-04-04T15:49:36.387Z,100077.50
2019-04-04T15:52:05.686Z,100070.89
2019-04-04T15:54:34.932Z,100077.83
2019-04-04T15:57:04.160Z,100082.33
2019-04-04T15:59:33.377Z,100092.44
2019-04-04T16:02:02.626Z,100079.89
2019-04-04T16:04:31.969Z,100089.41
2019-04-04T16:07:02.209Z,100085.97
2019-04-04T16:09:31.498Z,100085.65
2019-04-04T16:12:00.710Z,100091.64
2019-04-04T16:14:29.942Z,100088.09
2019-04-04T16:16:59.247Z,100087.94
2019-04-04T16:19:28.452Z,100092.84
2019-04-04T16:21:57.748Z,100102.02
2019-04-04T16:24:26.984Z,100098.58
2019-04-04T16:26:56.333Z,100092.05
2019-04-04T16:29:25.543Z,100091.58
2019-04-04T16:31:54.840Z,100091.37
2019-04-04T16:34:24.103Z,100091.37
2019-04-04T16:36:53.411Z,100099.78
2019-04-04T16:39:22.674Z,99933.16
2019-04-04T16:42:01.485Z,100121.72
2019-04-04T16:44:21.180Z,100126.69
2019-04-04T16:46:50.518Z,100135.36
2019-04-04T16:49:19.730Z,100134.03
2019-04-04T16:51:48.988Z,100145.14
2019-04-04T16:54:18.415Z,100146.82
2019-04-04T16:56:47.688Z,100163.21
2019-04-04T16:59:16.994Z,100152.42
2019-04-04T17:01:46.237Z,100160.86
2019-04-04T17:04:15.464Z,100168.95
2019-04-04T17:06:44.741Z,100186.13
2019-04-04T17:09:13.970Z,100181.88
2019-04-04T17:11:43.238Z,100180.14
2019-04-04T17:14:12.406Z,100188.63
2019-04-04T17:16:41.665Z,100192.84
2019-04-04T17:19:10.902Z,100191.74
2019-04-04T17:21:40.414Z,100196.09
2019-04-04T17:24:09.861Z,100195.23
2019-04-04T17:26:39.371Z,100194.72
2019-04-04T17:29:08.588Z,100194.25
2019-04-04T17:31:37.888Z,100194.85
2019-04-04T17:34:07.615Z,100191.41
2019-04-04T17:36:36.524Z,100191.41
2019-04-04T17:39:07.418Z,100203.30
2019-04-04T17:41:36.991Z,100200.33
2019-04-04T17:44:06.585Z,100205.69
2019-04-04T17:46:35.502Z,100218.23
2019-04-04T17:49:04.444Z,100201.05
2019-04-04T17:51:33.685Z,100216.89
2019-04-04T17:54:03.721Z,100211.80
2019-04-04T17:56:32.862Z,100204.89
2019-04-04T17:59:01.769Z,100204.89
2019-04-04T18:01:34.202Z,100193.11
2019-04-04T18:04:00.730Z,100200.78
2019-04-04T18:06:29.994Z,100197.16
2019-04-04T18:08:59.309Z,100183.74
2019-04-04T18:11:28.576Z,100198.27
2019-04-04T18:13:57.859Z,100201.39
2019-04-04T18:16:27.152Z,100201.39
2019-04-04T18:18:56.586Z,100195.39
2019-04-04T18:21:25.812Z,100195.39
2019-04-04T18:23:55.186Z,100199.81
2019-04-04T18:26:24.428Z,100199.81
2019-04-04T18:28:53.661Z,100198.50
2019-04-04T18:31:22.950Z,100199.81
2019-04-04T18:33:52.631Z,100178.88
2019-04-04T18:36:22.100Z,100178.88
2019-04-04T18:38:50.781Z,100196.50
2019-04-04T18:41:20.063Z,100196.50
2019-04-04T18:43:49.372Z,100203.56
2019-04-04T18:46:18.618Z,100204.89
2019-04-04T18:48:47.854Z,100210.07
2019-04-04T18:51:17.220Z,100210.07
2019-04-04T18:53:46.456Z,100218.88
2019-04-04T18:56:15.826Z,100218.94
2019-04-04T18:58:45.062Z,100216.98
2019-04-04T19:01:14.783Z,100216.30
2019-04-04T19:03:44.042Z,100208.51
2019-04-04T19:06:13.294Z,100203.10
2019-04-04T19:08:42.558Z,100210.48
2019-04-04T19:11:11.790Z,100210.48
2019-04-04T19:13:44.438Z,100207.73
2019-04-04T19:16:10.360Z,100200.38
2019-04-04T19:18:39.580Z,100195.70
2019-04-04T19:21:08.813Z,100189.70
2019-04-04T19:23:48.623Z,100217.34
2019-04-04T19:26:07.359Z,100217.34
2019-04-04T19:28:36.587Z,100210.61
2019-04-04T19:31:05.815Z,100210.61
2019-04-04T19:33:35.090Z,100214.70
2019-04-04T19:36:04.346Z,100216.61
2019-04-04T19:38:34.680Z,100234.88
2019-04-04T19:41:03.947Z,100228.88
2019-04-04T19:43:33.237Z,100245.95
2019-04-04T19:46:02.486Z,100260.25
2019-04-04T19:48:31.716Z,100261.52
2019-04-04T19:51:01.001Z,100266.34
2019-04-04T19:53:30.303Z,100263.36
2019-04-04T19:55:59.523Z,100273.19
2019-04-04T19:58:28.743Z,100267.56
2019-04-04T20:00:57.970Z,100280.53
2019-04-04T20:03:27.234Z,100280.53
2019-04-04T20:05:56.472Z,100292.17
2019-04-04T20:08:25.797Z,100286.25
2019-04-04T20:10:55.261Z,100286.25
2019-04-04T20:13:30.792Z,100287.69
2019-04-04T20:15:53.918Z,100297.69
2019-04-04T20:18:23.142Z,100301.81
2019-04-04T20:20:52.651Z,100301.81
2019-04-04T20:23:21.868Z,100306.16
2019-04-04T20:25:51.107Z,100293.55
2019-04-04T20:28:20.321Z,100292.94
2019-04-04T20:30:49.569Z,100293.67
2019-04-04T20:33:18.794Z,100293.67
2019-04-04T20:35:47.986Z,100294.69
2019-04-04T20:38:17.239Z,100295.58
2019-04-04T20:40:46.546Z,100289.88
2019-04-04T20:43:15.834Z,100289.88
2019-04-04T20:45:45.147Z,100295.38
2019-04-04T20:48:14.434Z,100300.23
2019-04-04T20:50:43.717Z,100305.70
2019-04-04T20:53:12.932Z,100318.13
2019-04-04T20:55:42.161Z,100311.80
2019-04-04T20:58:11.492Z,100305.20
2019-04-04T21:00:40.846Z,100312.93
2019-04-04T21:03:10.246Z,100322.47
2019-04-04T21:05:39.502Z,100317.70
2019-04-04T21:08:08.954Z,100318.78
2019-04-04T21:10:38.341Z,100317.42
2019-04-04T21:13:07.650Z,100318.86
2019-04-04T21:15:36.971Z,100318.86
2019-04-04T21:18:06.314Z,100326.35
2019-04-04T21:20:35.680Z,100325.55
2019-04-04T21:23:04.889Z,100323.83
2019-04-04T21:25:34.124Z,100321.70
2019-04-04T21:28:03.368Z,100331.98
2019-04-04T21:30:32.652Z,100326.93
2019-04-04T21:33:01.981Z,100329.26
2019-04-04T21:35:31.190Z,100330.19
2019-04-04T21:38:00.432Z,100331.00
2019-04-04T21:40:29.746Z,100328.05
2019-04-04T21:42:59.010Z,100339.30
2019-04-04T21:45:28.354Z,100339.30
2019-04-04T21:47:57.574Z,100348.30
2019-04-04T21:50:26.816Z,100355.28
2019-04-04T21:52:56.090Z,100355.28
2019-04-04T21:55:25.388Z,100361.52
2019-04-04T21:57:54.643Z,100357.17
2019-04-04T22:00:24.222Z,100361.23
2019-04-04T22:02:53.557Z,100354.53
2019-04-04T22:05:22.832Z,100357.98
2019-04-04T22:07:52.142Z,100357.39
2019-04-04T22:10:21.491Z,100357.39
2019-04-04T22:12:50.798Z,100366.09
2019-04-04T22:15:20.131Z,100368.33
2019-04-04T22:17:49.424Z,100370.50
2019-04-04T22:20:18.791Z,100373.22
2019-04-04T22:22:48.083Z,100375.78
2019-04-04T22:25:17.393Z,100380.52
2019-04-04T22:27:46.684Z,100374.35
2019-04-04T22:30:15.949Z,100388.61
2019-04-04T22:32:45.220Z,100393.88
2019-04-04T22:35:14.500Z,100382.55
2019-04-04T22:37:43.841Z,100378.59
2019-04-04T22:40:13.115Z,100393.17
2019-04-04T22:42:42.399Z,100393.17
2019-04-04T22:45:11.687Z,100395.38
2019-04-04T22:47:40.950Z,100391.97
2019-04-04T22:50:10.194Z,100380.52
2019-04-04T22:52:39.519Z,100381.95
2019-04-04T22:55:08.820Z,100381.95
2019-04-04T22:57:38.095Z,100388.79
2019-04-04T23:00:07.732Z,100396.84
2019-04-04T23:02:37.069Z,100394.70
2019-04-04T23:05:06.339Z,100406.53
2019-04-04T23:07:35.578Z,100416.90
2019-04-04T23:10:05.748Z,100413.41
2019-04-04T23:12:35.046Z,100407.28
2019-04-04T23:15:04.552Z,100417.89
2019-04-04T23:17:33.800Z,100419.64
2019-04-04T23:20:03.087Z,100411.34
2019-04-04T23:22:32.455Z,100414.83
2019-04-04T23:25:01.708Z,100410.63
2019-04-04T23:27:30.978Z,100408.95
2019-04-04T23:30:00.232Z,100401.55
2019-04-04T23:32:29.560Z,100401.55
2019-04-04T23:34:58.836Z,100406.39
2019-04-04T23:37:28.147Z,100414.94
2019-04-04T23:39:57.422Z,100428.19
2019-04-04T23:42:26.750Z,100432.89
2019-04-04T23:45:01.182Z,100435.20
2019-04-04T23:47:25.351Z,100433.09
2019-04-04T23:49:54.605Z,100430.10
2019-04-04T23:52:23.948Z,100423.91
2019-04-04T23:54:53.214Z,100421.84
2019-04-04T23:57:22.478Z,100424.02
2019-04-04T23:59:51.740Z,100420.98
